This is the latest recevied weather packets stored in our database for station/object DL5DI-H. If no packets are shown the sender has not sent any weather packets the latest 10 day(s).
| Time | Temp. | Humidity | Pressure | Rain* | Wind** | Luminosity | Snow |
|---|---|---|---|---|---|---|---|
| 1777215601 | 22.22° C | 39% | 1023.6 hPa | 0 mm | - | - | - |
| 1777215001 | 22.22° C | 39% | 1023.6 hPa | 0 mm | - | - | - |
| 1777214401 | 21.67° C | 39% | 1023.7 hPa | 0 mm | - | - | - |
| 1777213201 | 20.56° C | 39% | 1023.8 hPa | 0 mm | - | - | - |
| 1777212601 | 20.56° C | 39% | 1023.8 hPa | 0 mm | - | - | - |
| 1777211404 | 20° C | 38% | 1024.1 hPa | 0 mm | - | - | - |
| 1777210805 | 18.89° C | 39% | 1024.6 hPa | 0 mm | - | - | - |
| 1777210205 | 18.89° C | 39% | 1024.6 hPa | 0 mm | - | - | - |
| 1777209600 | 18.89° C | 39% | 1024.6 hPa | 0 mm | - | - | - |
| 1777209004 | 18.89° C | 39% | 1024.6 hPa | 0 mm | - | - | - |
| 1777208405 | 18.89° C | 39% | 1024.6 hPa | 0 mm | - | - | - |
| 1777207804 | 18.89° C | 42% | 1024.6 hPa | 0 mm | - | - | - |
| 1777207204 | 18.89° C | 42% | 1024.6 hPa | 0 mm | - | - | - |
| 1777206604 | 18.33° C | 43% | 1024.7 hPa | 0 mm | - | - | - |
| 1777206004 | 17.22° C | 46% | 1024.7 hPa | 0 mm | - | - | - |
| 1777205401 | 17.22° C | 46% | 1024.7 hPa | 0 mm | - | - | - |
| 1777204801 | 16.67° C | 48% | 1024.8 hPa | 0 mm | - | - | - |
| 1777204201 | 16.11° C | 51% | 1024.9 hPa | 0 mm | - | - | - |
| 1777203605 | 13.89° C | 60% | 1025.3 hPa | 0 mm | - | - | - |
| 1777203001 | 13.89° C | 60% | 1025.3 hPa | 0 mm | - | - | - |
| 1777202401 | 13.89° C | 60% | 1025.3 hPa | 0 mm | - | - | - |
| 1777201805 | 13.89° C | 60% | 1025.3 hPa | 0 mm | - | - | - |
| 1777201201 | 13.89° C | 60% | 1025.3 hPa | 0 mm | - | - | - |
| 1777200604 | 13.89° C | 61% | 1025.3 hPa | 0 mm | - | - | - |
| 1777200005 | 13.89° C | 62% | 1025.3 hPa | 0 mm | - | - | - |
* Rain latest hour (hover to see other rain measurements)
** Current wind speed in m/s (hover to see current wind gust speed)